createdAt,value
2018-04-22T00:00:08.420Z,14.39
2018-04-22T00:01:14.785Z,14.26
2018-04-22T00:02:20.643Z,14.13
2018-04-22T00:03:27.529Z,14.07
2018-04-22T00:04:33.879Z,14.00
2018-04-22T00:05:39.726Z,13.96
2018-04-22T00:06:46.588Z,13.81
2018-04-22T00:07:52.942Z,13.68
2018-04-22T00:08:59.320Z,13.54
2018-04-22T00:10:05.155Z,13.40
2018-04-22T00:11:12.012Z,13.37
2018-04-22T00:12:17.889Z,13.43
2018-04-22T00:13:25.719Z,13.48
2018-04-22T00:14:31.066Z,13.41
2018-04-22T00:15:37.413Z,13.28
2018-04-22T00:16:43.774Z,13.13
2018-04-22T00:17:49.607Z,13.06
2018-04-22T00:18:55.965Z,13.05
2018-04-22T00:20:02.790Z,12.96
2018-04-22T00:21:08.635Z,12.90
2018-04-22T00:22:14.989Z,12.87
2018-04-22T00:23:21.350Z,12.83
2018-04-22T00:24:27.648Z,12.77
2018-04-22T00:25:34.495Z,12.73
2018-04-22T00:26:40.836Z,12.68
2018-04-22T00:27:47.155Z,12.62
2018-04-22T00:28:53.520Z,12.58
2018-04-22T00:30:00.103Z,12.59
2018-04-22T00:31:06.176Z,12.62
2018-04-22T00:32:12.499Z,12.68
2018-04-22T00:33:19.003Z,12.65
2018-04-22T00:34:26.145Z,12.56
2018-04-22T00:35:31.679Z,12.46
2018-04-22T00:36:37.838Z,12.42
2018-04-22T00:37:43.649Z,12.37
2018-04-22T00:38:50.508Z,12.31
2018-04-22T00:39:56.796Z,12.28
2018-04-22T00:41:03.119Z,12.25
2018-04-22T00:42:08.985Z,12.22
2018-04-22T00:43:15.791Z,12.17
2018-04-22T00:44:22.106Z,12.19
2018-04-22T00:45:27.913Z,12.20
2018-04-22T00:46:34.723Z,12.19
2018-04-22T00:47:40.561Z,12.17
2018-04-22T00:48:47.399Z,12.09
2018-04-22T00:49:53.171Z,12.01
2018-04-22T00:50:59.990Z,11.98
2018-04-22T00:52:06.397Z,11.99
2018-04-22T00:53:12.118Z,11.96
2018-04-22T00:54:18.944Z,12.01
2018-04-22T00:55:25.221Z,11.97
2018-04-22T00:56:31.047Z,11.95
2018-04-22T00:57:37.845Z,11.87
2018-04-22T00:58:44.163Z,11.82
2018-04-22T00:59:50.448Z,11.75
2018-04-22T01:00:56.752Z,11.68
2018-04-22T01:02:03.071Z,11.63
2018-04-22T01:03:09.354Z,11.60
2018-04-22T01:04:15.711Z,11.56
2018-04-22T01:05:21.964Z,11.52
2018-04-22T01:06:28.265Z,11.50
2018-04-22T01:07:34.566Z,11.48
2018-04-22T01:08:41.881Z,11.46
2018-04-22T01:09:47.158Z,11.47
2018-04-22T01:10:53.008Z,11.46
2018-04-22T01:11:59.756Z,11.39
2018-04-22T01:13:06.066Z,11.39
2018-04-22T01:14:12.431Z,11.50
2018-04-22T01:15:18.640Z,11.52
2018-04-22T01:16:24.939Z,11.52
2018-04-22T01:17:31.239Z,11.54
2018-04-22T01:18:37.546Z,11.50
2018-04-22T01:19:43.324Z,11.50
2018-04-22T01:20:50.116Z,11.49
2018-04-22T01:21:56.391Z,11.48
2018-04-22T01:23:02.695Z,11.38
2018-04-22T01:24:08.989Z,11.33
2018-04-22T01:25:15.260Z,11.27
2018-04-22T01:26:21.561Z,11.21
2018-04-22T01:27:27.834Z,11.17
2018-04-22T01:28:34.177Z,11.14
2018-04-22T01:29:40.425Z,11.15
2018-04-22T01:30:46.201Z,11.14
2018-04-22T01:31:52.981Z,11.13
2018-04-22T01:32:59.266Z,11.08
2018-04-22T01:34:05.092Z,11.06
2018-04-22T01:35:11.836Z,11.09
2018-04-22T01:36:18.131Z,11.04
2018-04-22T01:37:23.905Z,10.93
2018-04-22T01:38:30.701Z,10.88
2018-04-22T01:39:36.480Z,10.88
2018-04-22T01:40:44.240Z,10.81
2018-04-22T01:41:49.537Z,10.75
2018-04-22T01:42:55.798Z,10.72
2018-04-22T01:44:02.100Z,10.72
2018-04-22T01:45:09.355Z,10.71
2018-04-22T01:46:14.146Z,10.71
2018-04-22T01:47:20.424Z,10.71
2018-04-22T01:48:27.224Z,10.69
2018-04-22T01:49:32.998Z,10.69
2018-04-22T01:50:39.744Z,10.62
2018-04-22T01:51:46.019Z,10.54
2018-04-22T01:52:52.384Z,10.50
2018-04-22T01:53:58.586Z,10.49
2018-04-22T01:55:04.337Z,10.54
2018-04-22T01:56:12.088Z,10.57
2018-04-22T01:57:16.877Z,10.55
2018-04-22T01:58:23.640Z,10.47
2018-04-22T01:59:29.930Z,10.45
2018-04-22T02:00:35.883Z,10.42
2018-04-22T02:01:42.466Z,10.37
2018-04-22T02:02:48.724Z,10.34
2018-04-22T02:03:55.015Z,10.38
2018-04-22T02:05:00.782Z,10.38
2018-04-22T02:06:07.519Z,10.41
2018-04-22T02:07:13.798Z,10.40
2018-04-22T02:08:20.055Z,10.39
2018-04-22T02:09:26.408Z,10.37
2018-04-22T02:10:32.592Z,10.42
2018-04-22T02:11:38.367Z,10.40
2018-04-22T02:12:45.132Z,10.37
2018-04-22T02:13:51.421Z,10.37
2018-04-22T02:14:57.652Z,10.38
2018-04-22T02:16:03.937Z,10.42
2018-04-22T02:17:10.184Z,10.43
2018-04-22T02:18:16.449Z,10.39
2018-04-22T02:19:22.755Z,10.39
2018-04-22T02:20:28.996Z,10.38
2018-04-22T02:21:35.242Z,10.36
2018-04-22T02:22:41.495Z,10.35
2018-04-22T02:23:47.298Z,10.32
2018-04-22T02:24:54.032Z,10.32
2018-04-22T02:26:00.382Z,10.33
2018-04-22T02:27:06.553Z,10.37
2018-04-22T02:28:12.809Z,10.38
2018-04-22T02:29:19.078Z,10.33
2018-04-22T02:30:24.831Z,10.31
2018-04-22T02:31:31.089Z,10.33
2018-04-22T02:32:37.350Z,10.33
2018-04-22T02:33:44.120Z,10.32
2018-04-22T02:34:50.383Z,10.27
2018-04-22T02:35:56.597Z,10.16
2018-04-22T02:37:02.865Z,10.10
2018-04-22T02:38:08.632Z,10.09
2018-04-22T02:39:15.391Z,10.07
2018-04-22T02:40:21.136Z,10.05
2018-04-22T02:41:27.872Z,10.01
2018-04-22T02:42:34.122Z,9.97
2018-04-22T02:43:40.412Z,9.93
2018-04-22T02:44:46.661Z,9.95
2018-04-22T02:45:52.884Z,9.93
2018-04-22T02:46:59.142Z,9.96
2018-04-22T02:48:05.394Z,9.96
2018-04-22T02:49:11.675Z,9.93
2018-04-22T02:50:17.900Z,9.89
2018-04-22T02:51:23.671Z,9.93
2018-04-22T02:52:29.925Z,9.96
2018-04-22T02:53:36.657Z,9.95
2018-04-22T02:54:42.929Z,9.97
2018-04-22T02:55:49.172Z,9.97
2018-04-22T02:56:54.944Z,9.99
2018-04-22T02:58:01.666Z,9.98
2018-04-22T02:59:07.938Z,9.97
2018-04-22T03:00:14.172Z,10.01
2018-04-22T03:01:20.412Z,10.04
2018-04-22T03:02:27.163Z,10.08
2018-04-22T03:03:32.909Z,10.08
2018-04-22T03:04:39.188Z,10.10
2018-04-22T03:05:44.932Z,10.16
2018-04-22T03:06:51.661Z,10.19
2018-04-22T03:07:57.914Z,10.21
2018-04-22T03:09:04.196Z,10.21
2018-04-22T03:10:10.419Z,10.20
2018-04-22T03:11:16.161Z,10.18
2018-04-22T03:12:22.898Z,10.18
2018-04-22T03:13:29.158Z,10.15
2018-04-22T03:14:35.419Z,10.12
2018-04-22T03:15:41.673Z,10.07
2018-04-22T03:16:47.912Z,10.03
2018-04-22T03:17:54.140Z,10.03
2018-04-22T03:18:59.916Z,10.02
2018-04-22T03:20:06.636Z,10.05
2018-04-22T03:21:12.891Z,10.04
2018-04-22T03:22:19.164Z,9.99
2018-04-22T03:23:25.385Z,9.93
2018-04-22T03:24:31.651Z,9.93
2018-04-22T03:25:37.874Z,9.97
2018-04-22T03:26:44.653Z,9.99
2018-04-22T03:27:50.379Z,10.01
2018-04-22T03:28:56.613Z,9.92
2018-04-22T03:30:02.891Z,9.89
2018-04-22T03:31:09.108Z,9.86
2018-04-22T03:32:15.361Z,9.85
2018-04-22T03:33:21.597Z,9.85
2018-04-22T03:34:27.564Z,9.86
2018-04-22T03:35:34.076Z,9.86
2018-04-22T03:36:40.380Z,9.88
2018-04-22T03:37:46.562Z,9.82
2018-04-22T03:38:52.403Z,9.82
2018-04-22T03:39:58.565Z,9.84
2018-04-22T03:41:05.290Z,9.84
2018-04-22T03:42:11.540Z,9.87
2018-04-22T03:43:17.763Z,9.84
2018-04-22T03:44:24.023Z,9.87
2018-04-22T03:45:30.242Z,9.86
2018-04-22T03:46:35.986Z,9.84
2018-04-22T03:47:42.741Z,9.82
2018-04-22T03:48:48.973Z,9.78
2018-04-22T03:49:55.238Z,9.76
2018-04-22T03:51:01.463Z,9.80
2018-04-22T03:52:07.217Z,9.80
2018-04-22T03:53:13.940Z,9.79
2018-04-22T03:54:19.697Z,9.78
2018-04-22T03:55:26.418Z,9.79
2018-04-22T03:56:32.651Z,9.75
2018-04-22T03:57:39.885Z,9.78
2018-04-22T03:58:44.648Z,9.81
2018-04-22T03:59:50.899Z,9.84
2018-04-22T04:00:57.664Z,9.84
2018-04-22T04:02:03.842Z,9.79
2018-04-22T04:03:10.087Z,9.77
2018-04-22T04:04:16.400Z,9.75
2018-04-22T04:05:22.575Z,9.71
2018-04-22T04:06:29.807Z,9.70
2018-04-22T04:07:35.063Z,9.67
2018-04-22T04:08:41.293Z,9.65
2018-04-22T04:09:47.557Z,9.60
2018-04-22T04:10:53.786Z,9.57
2018-04-22T04:12:00.024Z,9.58
2018-04-22T04:13:06.258Z,9.60
2018-04-22T04:14:12.517Z,9.60
2018-04-22T04:15:18.745Z,9.57
2018-04-22T04:16:24.989Z,9.56
2018-04-22T04:17:31.213Z,9.58
2018-04-22T04:18:37.455Z,9.56
2018-04-22T04:19:43.724Z,9.54
2018-04-22T04:20:49.939Z,9.50
2018-04-22T04:21:55.688Z,9.46
2018-04-22T04:23:03.408Z,9.46
2018-04-22T04:24:08.160Z,9.47
2018-04-22T04:25:14.905Z,9.51
2018-04-22T04:26:21.129Z,9.49
2018-04-22T04:27:27.358Z,9.49
2018-04-22T04:28:33.622Z,9.50
2018-04-22T04:29:39.867Z,9.49
2018-04-22T04:30:46.135Z,9.49
2018-04-22T04:31:52.385Z,9.50
2018-04-22T04:32:58.054Z,9.54
2018-04-22T04:34:05.779Z,9.54
2018-04-22T04:35:11.034Z,9.56
2018-04-22T04:36:17.254Z,9.55
2018-04-22T04:37:23.001Z,9.58
2018-04-22T04:38:29.242Z,9.63
2018-04-22T04:39:35.975Z,9.66
2018-04-22T04:40:42.231Z,9.69
2018-04-22T04:41:48.448Z,9.72
2018-04-22T04:42:54.693Z,9.82
2018-04-22T04:44:00.928Z,9.87
2018-04-22T04:45:07.193Z,9.93
2018-04-22T04:46:13.395Z,9.95
2018-04-22T04:47:19.636Z,9.92
2018-04-22T04:48:25.876Z,9.92
2018-04-22T04:49:32.121Z,9.94
2018-04-22T04:50:38.412Z,9.96
2018-04-22T04:51:44.612Z,9.99
2018-04-22T04:52:51.846Z,10.01
2018-04-22T04:53:57.095Z,10.03
2018-04-22T04:55:03.375Z,10.08
2018-04-22T04:56:09.606Z,10.11
2018-04-22T04:57:15.822Z,10.17
2018-04-22T04:58:22.071Z,10.22
2018-04-22T04:59:28.379Z,10.29
2018-04-22T05:00:34.589Z,10.30
2018-04-22T05:01:40.816Z,10.35
2018-04-22T05:02:46.571Z,10.39
2018-04-22T05:03:53.314Z,10.39
2018-04-22T05:04:59.591Z,10.39
2018-04-22T05:06:05.825Z,10.41
2018-04-22T05:07:12.075Z,10.40
2018-04-22T05:08:18.381Z,10.46
2018-04-22T05:09:24.577Z,10.52
2018-04-22T05:10:30.405Z,10.59
2018-04-22T05:11:36.584Z,10.67
2018-04-22T05:12:42.861Z,10.67
2018-04-22T05:13:49.604Z,10.66
2018-04-22T05:14:55.868Z,10.63
2018-04-22T05:16:01.605Z,10.68
2018-04-22T05:17:08.388Z,10.79
2018-04-22T05:18:14.619Z,10.82
2018-04-22T05:19:20.866Z,10.84
2018-04-22T05:20:27.159Z,10.86
2018-04-22T05:21:33.395Z,10.87
2018-04-22T05:22:39.157Z,10.91
2018-04-22T05:23:45.419Z,10.91
2018-04-22T05:24:51.692Z,10.92
2018-04-22T05:25:57.960Z,10.95
2018-04-22T05:27:04.204Z,10.97
2018-04-22T05:28:10.958Z,10.96
2018-04-22T05:29:18.217Z,10.98
2018-04-22T05:30:23.008Z,10.98
2018-04-22T05:31:29.767Z,11.02
2018-04-22T05:32:36.013Z,11.03
2018-04-22T05:33:42.391Z,11.05
2018-04-22T05:34:48.551Z,11.06
2018-04-22T05:35:54.860Z,11.16
2018-04-22T05:37:02.095Z,11.18
2018-04-22T05:38:07.367Z,11.22
2018-04-22T05:39:13.632Z,11.28
2018-04-22T05:40:19.931Z,11.39
2018-04-22T05:41:26.208Z,11.54
2018-04-22T05:42:32.941Z,11.60
2018-04-22T05:43:38.761Z,11.61
2018-04-22T05:44:45.022Z,11.64
2018-04-22T05:45:51.333Z,11.71
2018-04-22T05:46:58.088Z,11.78
2018-04-22T05:48:03.869Z,11.80
2018-04-22T05:49:10.148Z,11.81
2018-04-22T05:50:16.463Z,11.85
2018-04-22T05:51:22.733Z,11.85
2018-04-22T05:52:28.509Z,11.89
2018-04-22T05:53:35.304Z,11.99
2018-04-22T05:54:41.596Z,12.14
2018-04-22T05:55:47.899Z,12.22
2018-04-22T05:56:54.188Z,12.27
2018-04-22T05:58:00.460Z,12.36
2018-04-22T05:59:06.277Z,12.50
2018-04-22T06:00:13.097Z,12.65
2018-04-22T06:01:19.358Z,12.78
2018-04-22T06:02:25.671Z,12.88
2018-04-22T06:03:31.960Z,12.93
2018-04-22T06:04:38.271Z,12.96
2018-04-22T06:05:44.592Z,12.98
2018-04-22T06:06:50.893Z,13.00
2018-04-22T06:07:57.182Z,13.00
2018-04-22T06:09:03.508Z,13.02
2018-04-22T06:10:09.332Z,13.03
2018-04-22T06:11:16.116Z,13.05
2018-04-22T06:12:22.453Z,13.09
2018-04-22T06:13:28.745Z,13.15
2018-04-22T06:14:35.080Z,13.19
2018-04-22T06:15:41.428Z,13.21
2018-04-22T06:16:47.721Z,13.22
2018-04-22T06:17:54.038Z,13.26
2018-04-22T06:19:00.384Z,13.30
2018-04-22T06:20:06.694Z,13.37
2018-04-22T06:21:13.013Z,13.43
2018-04-22T06:22:19.332Z,13.50
2018-04-22T06:23:25.162Z,13.55
2018-04-22T06:24:31.980Z,13.62
2018-04-22T06:25:38.404Z,13.67
2018-04-22T06:26:44.665Z,13.73
2018-04-22T06:27:50.502Z,13.76
2018-04-22T06:28:56.826Z,13.84
2018-04-22T06:30:03.175Z,13.87
2018-04-22T06:31:10.040Z,13.93
2018-04-22T06:32:16.391Z,14.04
2018-04-22T06:33:22.689Z,14.13
2018-04-22T06:34:28.537Z,14.15
2018-04-22T06:35:35.393Z,14.20
2018-04-22T06:36:41.724Z,14.31
2018-04-22T06:37:48.075Z,14.43
2018-04-22T06:38:53.926Z,14.51
2018-04-22T06:40:00.785Z,14.59
2018-04-22T06:41:07.162Z,14.64
2018-04-22T06:42:13.496Z,14.69
2018-04-22T06:43:19.346Z,14.84
2018-04-22T06:44:26.756Z,14.94
2018-04-22T06:45:32.631Z,14.98
2018-04-22T06:46:38.941Z,15.02
2018-04-22T06:47:45.294Z,15.06
2018-04-22T06:48:51.679Z,15.15
2018-04-22T06:49:57.543Z,15.26
2018-04-22T06:51:04.454Z,15.36
2018-04-22T06:52:10.775Z,15.49
2018-04-22T06:53:17.218Z,15.61
2018-04-22T06:54:23.532Z,15.79
2018-04-22T06:55:29.953Z,15.99
2018-04-22T06:56:36.396Z,16.23
2018-04-22T06:57:42.210Z,16.53
2018-04-22T06:58:49.439Z,16.93
2018-04-22T06:59:55.004Z,17.31
2018-04-22T07:01:01.940Z,17.70
2018-04-22T07:02:07.845Z,18.03
2018-04-22T07:03:14.749Z,18.22
2018-04-22T07:04:21.195Z,18.36
2018-04-22T07:05:27.704Z,18.38
2018-04-22T07:06:34.044Z,18.34
2018-04-22T07:07:40.476Z,18.23
2018-04-22T07:08:46.450Z,18.15
2018-04-22T07:09:53.364Z,18.21
2018-04-22T07:10:59.888Z,18.29
2018-04-22T07:12:06.243Z,18.31
2018-04-22T07:13:12.684Z,18.28
2018-04-22T07:14:18.632Z,18.28
2018-04-22T07:15:25.607Z,18.23
2018-04-22T07:16:32.036Z,18.20
2018-04-22T07:17:37.956Z,18.14
2018-04-22T07:18:44.923Z,18.10
2018-04-22T07:19:51.346Z,18.08
2018-04-22T07:20:57.325Z,18.03
2018-04-22T07:22:04.235Z,17.99
2018-04-22T07:23:10.687Z,17.97
2018-04-22T07:24:17.179Z,17.95
2018-04-22T07:25:23.633Z,17.90
2018-04-22T07:26:29.582Z,17.84
2018-04-22T07:27:36.513Z,17.86
2018-04-22T07:28:42.972Z,17.99
2018-04-22T07:29:49.094Z,18.11
2018-04-22T07:30:55.423Z,18.14
2018-04-22T07:32:02.366Z,18.19
2018-04-22T07:33:08.813Z,18.24
2018-04-22T07:34:15.299Z,18.27
2018-04-22T07:35:21.787Z,18.35
2018-04-22T07:36:28.988Z,18.38
2018-04-22T07:37:34.730Z,18.38
2018-04-22T07:38:40.725Z,18.44
2018-04-22T07:39:47.698Z,18.46
2018-04-22T07:40:53.709Z,18.55
2018-04-22T07:42:00.689Z,18.58
2018-04-22T07:43:07.164Z,18.61
2018-04-22T07:44:13.166Z,18.65
2018-04-22T07:45:19.656Z,18.71
2018-04-22T07:46:26.680Z,18.81
2018-04-22T07:47:33.153Z,18.88
2018-04-22T07:48:39.650Z,18.91
2018-04-22T07:49:46.172Z,19.05
2018-04-22T07:50:52.703Z,19.19
2018-04-22T07:51:59.192Z,19.36
2018-04-22T07:53:05.245Z,19.44
2018-04-22T07:54:11.727Z,19.47
2018-04-22T07:55:18.729Z,19.50
2018-04-22T07:56:25.290Z,19.57
2018-04-22T07:57:31.783Z,19.62
2018-04-22T07:58:37.829Z,19.65
2018-04-22T07:59:44.840Z,19.67
2018-04-22T08:00:50.891Z,19.64
2018-04-22T08:01:57.376Z,19.58
2018-04-22T08:03:04.411Z,19.47
2018-04-22T08:04:10.946Z,19.36
2018-04-22T08:05:16.962Z,19.26
2018-04-22T08:06:25.021Z,19.23
2018-04-22T08:07:30.522Z,19.25
2018-04-22T08:08:36.552Z,19.29
2018-04-22T08:09:43.582Z,19.30
2018-04-22T08:10:50.140Z,19.36
2018-04-22T08:11:56.135Z,19.41
2018-04-22T08:13:02.675Z,19.44
2018-04-22T08:14:10.196Z,19.48
2018-04-22T08:15:15.732Z,19.51
2018-04-22T08:16:22.777Z,19.55
2018-04-22T08:17:28.797Z,19.59
2018-04-22T08:18:36.822Z,19.65
2018-04-22T08:19:42.359Z,19.72
2018-04-22T08:20:48.942Z,19.76
2018-04-22T08:21:54.976Z,19.76
2018-04-22T08:23:01.999Z,19.76
2018-04-22T08:24:08.533Z,19.72
2018-04-22T08:25:15.090Z,19.71
2018-04-22T08:26:21.645Z,19.73
2018-04-22T08:27:28.181Z,19.75
2018-04-22T08:28:34.727Z,19.78
2018-04-22T08:29:41.268Z,19.80
2018-04-22T08:30:47.850Z,19.81
2018-04-22T08:31:53.884Z,19.87
2018-04-22T08:33:00.438Z,19.90
2018-04-22T08:34:07.039Z,19.93
2018-04-22T08:35:13.583Z,19.96
2018-04-22T08:36:20.648Z,20.00
2018-04-22T08:37:27.192Z,20.06
2018-04-22T08:38:33.247Z,20.09
2018-04-22T08:39:40.313Z,20.10
2018-04-22T08:40:46.892Z,20.14
2018-04-22T08:41:53.438Z,20.19
2018-04-22T08:42:59.512Z,20.22
2018-04-22T08:44:06.588Z,20.22
2018-04-22T08:45:13.149Z,20.23
2018-04-22T08:46:19.740Z,20.22
2018-04-22T08:47:26.389Z,20.19
2018-04-22T08:48:32.379Z,20.21
2018-04-22T08:49:39.449Z,20.24
2018-04-22T08:50:45.543Z,20.30
2018-04-22T08:51:52.593Z,20.32
2018-04-22T08:52:59.169Z,20.31
2018-04-22T08:54:05.767Z,20.33
2018-04-22T08:55:12.876Z,20.38
2018-04-22T08:56:18.462Z,20.44
2018-04-22T08:57:25.494Z,20.45
2018-04-22T08:58:32.089Z,20.45
2018-04-22T08:59:38.180Z,20.43
2018-04-22T09:00:46.727Z,20.46
2018-04-22T09:01:51.912Z,20.48
2018-04-22T09:03:00.409Z,20.53
2018-04-22T09:04:04.567Z,20.59
2018-04-22T09:05:11.744Z,20.64
2018-04-22T09:06:17.752Z,20.66
2018-04-22T09:07:24.402Z,20.71
2018-04-22T09:08:31.552Z,20.75
2018-04-22T09:09:38.096Z,20.79
2018-04-22T09:11:51.221Z,20.87
2018-04-22T09:12:57.307Z,20.93
2018-04-22T09:14:04.416Z,20.95
2018-04-22T09:15:10.531Z,20.98
2018-04-22T09:16:17.184Z,21.00
2018-04-22T09:17:24.391Z,21.06
2018-04-22T09:18:31.105Z,21.12
2018-04-22T09:19:38.311Z,21.21
2018-04-22T09:20:44.144Z,21.26
2018-04-22T09:21:50.187Z,21.27
2018-04-22T09:22:57.280Z,21.31
2018-04-22T09:24:03.894Z,21.39
2018-04-22T09:25:11.507Z,21.45
2018-04-22T09:26:16.647Z,21.51
2018-04-22T09:27:23.247Z,21.52
2018-04-22T09:28:30.385Z,21.59
2018-04-22T09:29:36.486Z,21.65
2018-04-22T09:30:43.602Z,21.69
2018-04-22T09:31:49.749Z,21.72
2018-04-22T09:32:56.865Z,21.75
2018-04-22T09:34:03.469Z,21.80
2018-04-22T09:35:09.603Z,21.86
2018-04-22T09:36:16.759Z,21.94
2018-04-22T09:37:23.356Z,22.02
2018-04-22T09:38:29.985Z,22.06
2018-04-22T09:39:36.638Z,22.12
2018-04-22T09:40:44.260Z,22.19
2018-04-22T09:41:49.932Z,22.31
2018-04-22T09:42:56.555Z,22.38
2018-04-22T09:44:02.694Z,22.41
2018-04-22T09:45:09.340Z,22.45
2018-04-22T09:46:16.025Z,22.59
2018-04-22T09:47:23.142Z,22.70
2018-04-22T09:48:29.779Z,22.79
2018-04-22T09:49:36.439Z,22.84
2018-04-22T09:50:42.613Z,22.90
2018-04-22T09:51:49.278Z,23.01
2018-04-22T09:52:55.919Z,23.07
2018-04-22T09:54:02.616Z,23.20
2018-04-22T09:55:09.267Z,23.36
2018-04-22T09:56:16.649Z,23.54
2018-04-22T09:57:22.745Z,23.66
2018-04-22T09:58:29.829Z,23.74
2018-04-22T09:59:35.999Z,23.82
2018-04-22T10:00:43.177Z,23.92
2018-04-22T10:01:49.910Z,24.04
2018-04-22T10:02:56.576Z,24.10
2018-04-22T10:04:03.290Z,24.26
2018-04-22T10:05:09.995Z,24.40
2018-04-22T10:06:16.248Z,24.47
2018-04-22T10:07:23.467Z,24.66
2018-04-22T10:08:30.664Z,24.82
2018-04-22T10:09:36.892Z,24.85
2018-04-22T10:10:43.627Z,24.92
2018-04-22T10:11:50.352Z,25.05
2018-04-22T10:12:57.094Z,24.99
2018-04-22T10:14:03.836Z,24.98
2018-04-22T10:15:10.580Z,25.01
2018-04-22T10:16:17.351Z,25.16
2018-04-22T10:17:23.620Z,25.20
2018-04-22T10:18:30.345Z,25.25
2018-04-22T10:19:37.608Z,25.39
2018-04-22T10:20:44.396Z,25.47
2018-04-22T10:21:51.147Z,25.54
2018-04-22T10:22:57.887Z,25.56
2018-04-22T10:24:04.629Z,25.48
2018-04-22T10:25:10.903Z,25.35
2018-04-22T10:26:17.650Z,25.27
2018-04-22T10:27:24.388Z,25.21
2018-04-22T10:28:31.769Z,25.11
2018-04-22T10:29:38.387Z,25.12
2018-04-22T10:30:44.625Z,25.26
2018-04-22T10:31:51.399Z,25.35
2018-04-22T10:32:58.135Z,25.46
2018-04-22T10:34:05.372Z,25.53
2018-04-22T10:35:12.177Z,25.47
2018-04-22T10:36:19.143Z,25.57
2018-04-22T10:37:25.162Z,25.55
2018-04-22T10:38:32.427Z,25.55
2018-04-22T10:39:39.191Z,25.53
2018-04-22T10:40:45.952Z,25.58
2018-04-22T10:41:53.741Z,25.69
2018-04-22T10:42:59.495Z,25.82
2018-04-22T10:44:06.253Z,25.92
2018-04-22T10:45:12.558Z,25.98
2018-04-22T10:46:19.843Z,26.05
2018-04-22T10:47:26.094Z,26.20
2018-04-22T10:48:32.866Z,26.28
2018-04-22T10:49:39.668Z,26.35
2018-04-22T10:50:46.444Z,26.50
2018-04-22T10:51:53.255Z,26.55
2018-04-22T10:53:00.525Z,26.57
2018-04-22T10:54:07.353Z,26.61
2018-04-22T10:55:14.211Z,26.56
2018-04-22T10:56:20.454Z,26.72
2018-04-22T10:57:27.734Z,26.91
2018-04-22T10:58:34.638Z,26.84
2018-04-22T10:59:42.374Z,26.89
2018-04-22T11:00:49.289Z,26.97
2018-04-22T11:01:54.560Z,26.93
2018-04-22T11:03:01.335Z,26.88
2018-04-22T11:04:08.161Z,26.91
2018-04-22T11:05:15.481Z,27.00
2018-04-22T11:06:22.425Z,27.23
2018-04-22T11:07:29.152Z,27.37
2018-04-22T11:08:35.477Z,27.41
2018-04-22T11:09:42.304Z,27.45
2018-04-22T11:10:49.163Z,27.53
2018-04-22T11:11:56.686Z,27.65
2018-04-22T11:13:03.347Z,27.74
2018-04-22T11:14:10.280Z,27.77
2018-04-22T11:15:17.152Z,27.83
2018-04-22T11:16:24.130Z,27.81
2018-04-22T11:17:31.065Z,27.69
2018-04-22T11:18:37.581Z,27.74
2018-04-22T11:19:45.140Z,27.83
2018-04-22T11:20:52.228Z,27.89
2018-04-22T11:21:58.887Z,27.98
2018-04-22T11:23:06.002Z,27.97
2018-04-22T11:24:13.676Z,28.00
2018-04-22T11:25:20.839Z,28.14
2018-04-22T11:26:28.100Z,28.24
2018-04-22T11:27:35.320Z,28.29
2018-04-22T11:28:42.095Z,28.47
2018-04-22T11:29:49.367Z,28.69
2018-04-22T11:30:56.661Z,28.85
2018-04-22T11:32:05.604Z,28.82
2018-04-22T11:33:11.208Z,28.82
2018-04-22T11:34:18.479Z,28.88
2018-04-22T11:35:25.700Z,28.91
2018-04-22T11:36:33.438Z,29.00
2018-04-22T11:37:40.130Z,28.89
2018-04-22T11:38:47.389Z,28.95
2018-04-22T11:39:55.025Z,29.05
2018-04-22T11:41:01.717Z,29.02
2018-04-22T11:42:09.471Z,29.03
2018-04-22T11:43:16.738Z,29.08
2018-04-22T11:44:24.000Z,29.21
2018-04-22T11:45:30.819Z,29.37
2018-04-22T11:46:38.177Z,29.29
2018-04-22T11:47:45.510Z,29.12
2018-04-22T11:48:53.373Z,29.14
2018-04-22T11:50:00.704Z,29.05
2018-04-22T11:51:07.607Z,29.24
2018-04-22T11:52:15.060Z,29.24
2018-04-22T11:53:22.473Z,29.22
2018-04-22T11:54:30.420Z,29.24
2018-04-22T11:55:37.363Z,29.31
2018-04-22T11:56:44.812Z,29.23
2018-04-22T11:57:52.188Z,29.17
2018-04-22T11:58:59.590Z,29.19
2018-04-22T12:00:07.467Z,29.34
2018-04-22T12:01:14.362Z,29.24
2018-04-22T12:02:22.257Z,29.16
2018-04-22T12:03:29.634Z,28.70
2018-04-22T12:04:37.014Z,28.94
2018-04-22T12:05:43.939Z,29.09
2018-04-22T12:06:51.367Z,29.30
2018-04-22T12:07:58.809Z,29.52
2018-04-22T12:09:06.249Z,29.62
2018-04-22T12:10:13.711Z,29.73
2018-04-22T12:11:21.172Z,29.86
2018-04-22T12:12:28.671Z,29.93
2018-04-22T12:13:36.125Z,29.97
2018-04-22T12:14:43.652Z,30.06
2018-04-22T12:15:51.574Z,30.21
2018-04-22T12:16:58.705Z,30.31
2018-04-22T12:18:06.572Z,30.37
2018-04-22T12:19:14.110Z,30.36
2018-04-22T12:20:21.135Z,30.45
2018-04-22T12:21:28.681Z,30.56
2018-04-22T12:22:36.286Z,30.55
2018-04-22T12:23:44.385Z,30.45
2018-04-22T12:24:51.902Z,30.49
2018-04-22T12:25:59.490Z,30.62
2018-04-22T12:27:06.603Z,30.60
2018-04-22T12:28:14.629Z,30.52
2018-04-22T12:29:22.205Z,30.54
2018-04-22T12:30:29.272Z,30.54
2018-04-22T12:31:37.345Z,30.37
2018-04-22T12:32:44.417Z,30.26
2018-04-22T12:33:52.393Z,30.22
2018-04-22T12:34:59.292Z,30.13
2018-04-22T12:36:07.277Z,30.12
2018-04-22T12:37:14.416Z,30.25
2018-04-22T12:38:22.385Z,30.27
2018-04-22T12:39:29.333Z,30.26
2018-04-22T12:40:37.348Z,30.19
2018-04-22T12:41:44.448Z,30.19
2018-04-22T12:42:52.477Z,30.23
2018-04-22T12:43:59.572Z,30.29
2018-04-22T12:45:07.694Z,30.36
2018-04-22T12:46:15.295Z,30.33
2018-04-22T12:47:22.954Z,30.23
2018-04-22T12:48:30.538Z,30.26
2018-04-22T12:49:39.153Z,30.29
2018-04-22T12:50:45.777Z,30.29
2018-04-22T12:51:52.936Z,30.41
2018-04-22T12:53:00.544Z,30.51
2018-04-22T12:54:08.696Z,30.59
2018-04-22T12:55:15.780Z,30.55
2018-04-22T12:56:23.943Z,30.49
2018-04-22T12:57:31.511Z,30.52
2018-04-22T12:58:38.591Z,30.48
2018-04-22T12:59:46.694Z,30.45
2018-04-22T13:00:53.867Z,30.39
2018-04-22T13:02:01.942Z,30.45
2018-04-22T13:03:09.112Z,30.45
2018-04-22T13:04:16.749Z,30.48
2018-04-22T13:05:24.389Z,30.34
2018-04-22T13:06:32.549Z,30.30
2018-04-22T13:07:40.256Z,30.22
2018-04-22T13:08:47.912Z,30.22
2018-04-22T13:09:55.565Z,30.04
2018-04-22T13:11:03.223Z,30.04
2018-04-22T13:12:10.411Z,30.01
2018-04-22T13:13:18.015Z,30.07
2018-04-22T13:14:25.711Z,30.18
2018-04-22T13:15:33.797Z,30.27
2018-04-22T13:16:41.458Z,30.29
2018-04-22T13:17:49.073Z,30.30
2018-04-22T13:18:56.644Z,30.41
2018-04-22T13:20:04.236Z,30.48
2018-04-22T13:21:11.304Z,30.45
2018-04-22T13:22:19.370Z,30.38
2018-04-22T13:23:26.868Z,30.17
2018-04-22T13:24:33.914Z,30.00
2018-04-22T13:25:41.446Z,29.93
2018-04-22T13:26:49.579Z,29.96
2018-04-22T13:27:56.497Z,29.87
2018-04-22T13:29:04.761Z,29.91
2018-04-22T13:30:11.615Z,29.94
2018-04-22T13:31:19.175Z,30.02
2018-04-22T13:32:26.795Z,30.08
2018-04-22T13:33:34.807Z,30.10
2018-04-22T13:34:42.394Z,30.11
2018-04-22T13:35:49.417Z,30.06
2018-04-22T13:36:57.008Z,29.93
2018-04-22T13:38:04.502Z,29.89
2018-04-22T13:39:12.024Z,29.77
2018-04-22T13:40:19.513Z,29.89
2018-04-22T13:41:27.009Z,29.88
2018-04-22T13:42:34.532Z,29.71
2018-04-22T13:43:42.008Z,29.69
2018-04-22T13:44:49.470Z,29.58
2018-04-22T13:45:56.946Z,29.53
2018-04-22T13:47:04.403Z,29.35
2018-04-22T13:48:11.788Z,29.32
2018-04-22T13:49:19.182Z,29.40
2018-04-22T13:50:26.549Z,29.44
2018-04-22T13:51:34.401Z,29.44
2018-04-22T13:52:41.263Z,29.52
2018-04-22T13:53:48.547Z,29.43
2018-04-22T13:54:56.386Z,29.56
2018-04-22T13:56:03.138Z,29.66
2018-04-22T13:57:10.950Z,29.79
2018-04-22T13:58:17.700Z,30.01
2018-04-22T13:59:25.482Z,30.27
2018-04-22T14:00:32.786Z,30.55
2018-04-22T14:01:39.603Z,30.77
2018-04-22T14:02:46.964Z,30.90
2018-04-22T14:03:54.391Z,30.95
2018-04-22T14:05:02.204Z,31.07
2018-04-22T14:06:09.125Z,31.13
2018-04-22T14:07:16.608Z,31.18
2018-04-22T14:08:24.068Z,31.44
2018-04-22T14:09:31.559Z,31.60
2018-04-22T14:10:39.587Z,31.40
2018-04-22T14:11:46.621Z,31.13
2018-04-22T14:12:54.180Z,31.24
2018-04-22T14:14:01.705Z,31.41
2018-04-22T14:15:09.752Z,31.23
2018-04-22T14:16:17.293Z,31.26
2018-04-22T14:17:24.871Z,31.35
2018-04-22T14:18:31.912Z,31.29
2018-04-22T14:19:39.977Z,31.30
2018-04-22T14:20:47.043Z,31.35
2018-04-22T14:21:54.612Z,31.43